Rozet, WY (82727)

5:48 AM MST on January 31, 2015 (GMT -0700)
UNION CHAPEL FAIRVIEW | Change Station
CLOSE
Current Station
Personal Weather Station
Location: GILLETTE, WY
Elevation: 4593 ft
Nearby Weather Stations

Elev 4593 ft 44.22 °N, 105.35 °W | Updated 3 minutes ago

Partly Cloudy
Partly Cloudy
27.0 °F
Feels Like 18 °F
N
9.0
Wind Variable Wind from SSE

Today
High -- | Low -- °F
--% Chance of Precip.
Yesterday
High -- | Low -- °F
Precip. -- in
7:20 AM 5:09 PM
Waxing Gibbous, 89% visible
Pressure 29.99 in
Visibility 10.0 miles
Clouds Clear
Windchill 18 °F
Dew Point 23 °F
Humidity 83%
Rainfall 0.00 in
Snow Depth Not available.
UV 0 out of 12
Pollen .10 out of 12
Air Quality Not available.
Flu Activity Not available.
METAR KGCC 311153Z AUTO 16009KT 10SM CLR 00/M06 A2992 RMK AO2 SLP153 T00001056 10006 21044 56022 TSNO

More Conditions Fewer Conditions

Pressure 29.99 in
Visibility 10.0 miles
Clouds Clear
Windchill 18 °F
Dew Point 23 °F
Humidity 83%
Rainfall 0.00 in
Snow Depth Not available.
UV 0 out of 12
Pollen .10 out of 12
Air Quality Not available.
Flu Activity Not available.
METAR KGCC 311153Z AUTO 16009KT 10SM CLR 00/M06 A2992 RMK AO2 SLP153 T00001056 10006 21044 56022 TSNO

More Conditions Fewer Conditions

10-Day Weather Forecast

Almanac

Astronomy

Jan. 31, 2015 Rise Set
Actual Time
Civil Twilight
Nautical Twilight
Astronomical Twilight
Moon
Length of Visible Light
Length of Day
Tomorrow will be .
, % of the Moon is Illuminated

Today's Extremes

State Highs State Lows

Community

WunderPhotos

Upload Photos

1,792,041 photos uploaded!

WunderBlogs® & News

Nearby

Air Quality

  Air Quality AQ Index Pollutant
Not available.

Snow Depth

Station Depth Elevation

Earthquake Activity

City Distance Mag. Time & Date
Minimum magnitude displayed is 2.5.

Coastal Water Temperatures

Place Temperature

Nearby Weather Stations